createdAt,value
2022-11-20T00:04:00.418Z,-3.26
2022-11-20T00:09:06.217Z,-3.78
2022-11-20T00:14:09.091Z,-3.84
2022-11-20T00:19:11.963Z,-3.65
2022-11-20T00:24:16.219Z,-3.57
2022-11-20T00:29:19.325Z,-3.55
2022-11-20T00:34:22.383Z,-3.76
2022-11-20T00:39:26.499Z,-3.75
2022-11-20T00:44:29.239Z,-3.72
2022-11-20T00:49:33.177Z,-3.69
2022-11-20T00:54:37.304Z,-3.64
2022-11-20T00:59:40.028Z,-3.58
2022-11-20T01:04:42.784Z,-3.65
2022-11-20T01:09:46.896Z,-3.64
2022-11-20T01:14:49.724Z,-3.57
2022-11-20T01:19:52.506Z,-3.54
2022-11-20T01:24:56.634Z,-3.58
2022-11-20T01:30:01.240Z,-3.67
2022-11-20T01:35:04.508Z,-3.69
2022-11-20T01:40:09.952Z,-3.70
2022-11-20T01:45:54.752Z,-3.68
2022-11-20T01:50:59.959Z,-3.73
2022-11-20T01:56:07.828Z,-3.91
2022-11-20T02:01:10.908Z,-3.93
2022-11-20T02:06:19.461Z,-4.10
2022-11-20T02:11:23.793Z,-4.11
2022-11-20T02:16:29.519Z,-4.13
2022-11-20T02:21:39.032Z,-4.16
2022-11-20T02:26:49.367Z,-4.16
2022-11-20T02:31:52.792Z,-4.15
2022-11-20T02:36:55.651Z,-4.13
2022-11-20T02:41:59.790Z,-4.29
2022-11-20T02:47:02.575Z,-4.36
2022-11-20T02:52:05.734Z,-4.37
2022-11-20T02:57:09.881Z,-4.27
2022-11-20T03:02:12.719Z,-4.50
2022-11-20T03:07:15.576Z,-4.76
2022-11-20T03:12:19.720Z,-4.66
2022-11-20T03:17:22.503Z,-4.60
2022-11-20T03:22:25.242Z,-4.52
2022-11-20T03:27:29.309Z,-4.49
2022-11-20T03:32:32.140Z,-4.44
2022-11-20T03:37:35.030Z,-4.50
2022-11-20T03:42:47.889Z,-4.64
2022-11-20T03:47:50.842Z,-4.73
2022-11-20T03:52:53.613Z,-4.64
2022-11-20T03:57:57.893Z,-4.55
2022-11-20T04:03:00.711Z,-4.60
2022-11-20T04:08:03.682Z,-4.72
2022-11-20T04:13:07.938Z,-4.99
2022-11-20T04:18:10.733Z,-5.42
2022-11-20T04:23:13.472Z,-5.22
2022-11-20T04:28:17.626Z,-4.97
2022-11-20T04:33:20.406Z,-4.81
2022-11-20T04:38:23.131Z,-4.89
2022-11-20T04:43:27.320Z,-4.79
2022-11-20T04:48:31.315Z,-4.66
2022-11-20T04:53:34.361Z,-4.58
2022-11-20T04:58:39.223Z,-4.52
2022-11-20T05:03:42.999Z,-4.45
2022-11-20T05:08:45.855Z,-4.47
2022-11-20T05:13:50.645Z,-4.42
2022-11-20T05:18:55.193Z,-4.47
2022-11-20T05:23:57.963Z,-4.54
2022-11-20T05:29:02.113Z,-4.53
2022-11-20T05:34:04.990Z,-4.59
2022-11-20T05:39:07.815Z,-4.63
2022-11-20T05:44:14.008Z,-4.64
2022-11-20T05:49:16.811Z,-4.67
2022-11-20T05:54:19.820Z,-4.65
2022-11-20T05:59:24.150Z,-4.68
2022-11-20T06:04:27.225Z,-4.73
2022-11-20T06:09:29.984Z,-4.78
2022-11-20T06:14:34.231Z,-4.70
2022-11-20T06:19:36.943Z,-4.65
2022-11-20T06:24:39.683Z,-4.68
2022-11-20T06:29:43.809Z,-4.75
2022-11-20T06:34:46.572Z,-4.80
2022-11-20T06:39:49.321Z,-4.79
2022-11-20T06:44:53.402Z,-4.84
2022-11-20T06:49:56.252Z,-4.80
2022-11-20T06:54:58.997Z,-4.76
2022-11-20T07:00:03.096Z,-4.81
2022-11-20T07:05:06.136Z,-4.72
2022-11-20T07:10:09.881Z,-4.58
2022-11-20T07:15:14.071Z,-3.15
2022-11-20T07:20:17.375Z,-2.22
2022-11-20T07:25:20.111Z,-2.04
2022-11-20T07:30:24.184Z,-2.76
2022-11-20T07:35:27.150Z,-3.29
2022-11-20T07:40:29.915Z,-3.46
2022-11-20T07:45:34.124Z,-3.30
2022-11-20T07:50:36.902Z,-2.97
2022-11-20T07:55:39.692Z,-3.14
2022-11-20T08:00:43.824Z,-3.49
2022-11-20T08:05:46.797Z,-3.54
2022-11-20T08:10:49.542Z,-3.65
2022-11-20T08:15:53.614Z,-3.89
2022-11-20T08:20:56.488Z,-3.32
2022-11-20T08:25:59.274Z,-2.20
2022-11-20T08:31:04.527Z,-1.06
2022-11-20T08:36:08.328Z,-0.55
2022-11-20T08:41:26.657Z,-0.20
2022-11-20T08:46:35.150Z,1.00
2022-11-20T08:51:38.387Z,1.32
2022-11-20T08:56:41.166Z,2.20
2022-11-20T09:01:45.331Z,1.48
2022-11-20T09:06:51.774Z,1.09
2022-11-20T09:11:54.542Z,0.85
2022-11-20T09:16:59.071Z,1.05
2022-11-20T09:22:02.016Z,0.67
2022-11-20T09:27:06.074Z,-0.19
2022-11-20T09:32:10.196Z,-0.38
2022-11-20T09:37:13.077Z,-0.39
2022-11-20T09:42:34.769Z,-0.67
2022-11-20T09:47:53.230Z,-0.94
2022-11-20T09:53:09.105Z,-1.07
2022-11-20T09:58:20.041Z,-1.32
2022-11-20T10:03:35.390Z,-1.83
2022-11-20T10:08:45.170Z,-1.69
2022-11-20T10:14:01.824Z,-1.49
2022-11-20T10:19:20.623Z,-1.01
2022-11-20T10:24:49.543Z,1.22
2022-11-20T10:30:03.005Z,5.03
2022-11-20T10:35:18.947Z,5.89
2022-11-20T10:40:29.324Z,3.88
2022-11-20T10:45:45.147Z,3.71
2022-11-20T10:50:59.443Z,5.27
2022-11-20T10:56:08.063Z,6.26
2022-11-20T11:01:17.654Z,6.60
2022-11-20T11:06:31.108Z,9.48
2022-11-20T11:11:35.713Z,9.36
2022-11-20T11:16:51.616Z,9.78
2022-11-20T11:21:57.503Z,11.48
2022-11-20T11:27:05.376Z,10.41
2022-11-20T11:32:09.670Z,10.42
2022-11-20T11:37:19.123Z,10.26
2022-11-20T11:42:22.476Z,9.03
2022-11-20T11:47:27.271Z,7.17
2022-11-20T11:52:38.141Z,5.61
2022-11-20T11:57:50.101Z,7.73
2022-11-20T12:03:02.548Z,9.15
2022-11-20T12:08:13.039Z,8.03
2022-11-20T12:13:30.964Z,7.39
2022-11-20T12:18:33.912Z,7.42
2022-11-20T12:23:51.591Z,6.12
2022-11-20T12:29:04.307Z,4.55
2022-11-20T12:34:16.409Z,4.22
2022-11-20T12:39:42.772Z,4.61
2022-11-20T12:45:12.909Z,5.53
2022-11-20T12:50:24.925Z,5.19
2022-11-20T12:55:49.369Z,5.03
2022-11-20T13:00:59.229Z,4.43
2022-11-20T13:06:12.167Z,5.37
2022-11-20T13:11:22.988Z,4.72
2022-11-20T13:16:34.472Z,4.68
2022-11-20T13:21:40.331Z,3.72
2022-11-20T13:26:44.548Z,3.23
2022-11-20T13:31:49.198Z,3.20
2022-11-20T13:36:54.243Z,2.57
2022-11-20T13:42:00.283Z,2.50
2022-11-20T13:47:03.287Z,3.73
2022-11-20T13:52:36.785Z,3.54
2022-11-20T13:57:58.695Z,3.92
2022-11-20T14:03:13.246Z,3.16
2022-11-20T14:08:25.760Z,2.85
2022-11-20T14:13:29.852Z,2.87
2022-11-20T14:18:32.635Z,2.95
2022-11-20T14:23:35.433Z,3.30
2022-11-20T14:28:39.692Z,2.95
2022-11-20T14:33:42.528Z,2.72
2022-11-20T14:38:46.101Z,2.53
2022-11-20T14:43:55.295Z,2.29
2022-11-20T14:48:59.870Z,1.91
2022-11-20T14:54:13.399Z,1.81
2022-11-20T14:59:25.070Z,1.68
2022-11-20T15:04:27.976Z,1.54
2022-11-20T15:09:30.893Z,1.46
2022-11-20T15:14:35.072Z,1.41
2022-11-20T15:19:37.902Z,1.35
2022-11-20T15:24:40.752Z,1.29
2022-11-20T15:29:45.195Z,1.23
2022-11-20T15:34:47.971Z,1.17
2022-11-20T15:39:50.835Z,1.09
2022-11-20T15:44:54.952Z,0.99
2022-11-20T15:49:57.807Z,0.85
2022-11-20T15:55:02.358Z,0.75
2022-11-20T16:00:11.306Z,0.68
2022-11-20T16:05:17.505Z,0.66
2022-11-20T16:10:20.336Z,0.78
2022-11-20T16:15:41.765Z,0.86
2022-11-20T16:20:45.627Z,0.87
2022-11-20T16:25:48.755Z,0.89
2022-11-20T16:30:52.943Z,0.90
2022-11-20T16:35:55.754Z,0.90
2022-11-20T16:41:02.441Z,0.87
2022-11-20T16:46:06.984Z,0.85
2022-11-20T16:51:11.485Z,0.63
2022-11-20T16:56:17.195Z,0.67
2022-11-20T17:01:22.896Z,0.74
2022-11-20T17:06:27.774Z,0.76
2022-11-20T17:11:30.594Z,0.70
2022-11-20T17:16:35.970Z,0.68
2022-11-20T17:21:39.456Z,0.66
2022-11-20T17:26:43.468Z,0.60
2022-11-20T17:31:48.571Z,0.50
2022-11-20T17:36:51.721Z,0.62
2022-11-20T17:42:08.433Z,0.58
2022-11-20T17:47:12.583Z,0.42
2022-11-20T17:52:15.372Z,0.47
2022-11-20T17:57:35.435Z,0.49
2022-11-20T18:02:39.953Z,0.53
2022-11-20T18:07:42.812Z,0.53
2022-11-20T18:12:45.571Z,0.57
2022-11-20T18:17:49.797Z,0.51
2022-11-20T18:22:52.695Z,0.37
2022-11-20T18:27:56.375Z,0.25
2022-11-20T18:33:00.612Z,0.30
2022-11-20T18:38:03.519Z,0.30
2022-11-20T18:43:24.445Z,0.05
2022-11-20T18:48:28.591Z,0.29
2022-11-20T18:53:31.397Z,0.35
2022-11-20T18:58:34.304Z,0.26
2022-11-20T19:03:38.456Z,0.28
2022-11-20T19:08:41.490Z,0.02
2022-11-20T19:13:44.302Z,-0.07
2022-11-20T19:18:48.450Z,-0.19
2022-11-20T19:23:52.422Z,-0.25
2022-11-20T19:28:55.524Z,-0.32
2022-11-20T19:34:01.148Z,-0.44
2022-11-20T19:39:06.579Z,-0.41
2022-11-20T19:44:11.582Z,-0.44
2022-11-20T19:49:15.900Z,-0.38
2022-11-20T19:54:19.128Z,-0.36
2022-11-20T19:59:22.267Z,-0.38
2022-11-20T20:04:26.732Z,-0.35
2022-11-20T20:09:30.433Z,-0.33
2022-11-20T20:14:34.726Z,-0.22
2022-11-20T20:19:38.857Z,-0.20
2022-11-20T20:24:41.663Z,-0.18
2022-11-20T20:29:44.458Z,-0.27
2022-11-20T20:34:48.643Z,-0.16
2022-11-20T20:39:51.439Z,-0.13
2022-11-20T20:45:11.149Z,-0.21
2022-11-20T20:50:15.461Z,-0.29
2022-11-20T20:55:18.454Z,-0.22
2022-11-20T21:00:21.249Z,-0.19
2022-11-20T21:05:25.393Z,-0.11
2022-11-20T21:10:28.393Z,-0.09
2022-11-20T21:15:31.135Z,-0.08
2022-11-20T21:20:52.584Z,-0.08
2022-11-20T21:25:55.374Z,-0.02
2022-11-20T21:31:04.752Z,-0.01
2022-11-20T21:36:10.095Z,0.02
2022-11-20T21:41:14.554Z,0.04
2022-11-20T21:46:18.126Z,0.06
2022-11-20T21:51:23.676Z,0.08
2022-11-20T21:56:28.202Z,0.07
2022-11-20T22:01:31.604Z,0.10
2022-11-20T22:06:35.784Z,0.11
2022-11-20T22:11:38.623Z,0.12
2022-11-20T22:16:41.504Z,0.12
2022-11-20T22:21:45.956Z,0.15
2022-11-20T22:26:49.157Z,0.16
2022-11-20T22:31:53.296Z,0.16
2022-11-20T22:36:57.404Z,0.16
2022-11-20T22:42:00.154Z,0.19
2022-11-20T22:47:06.290Z,0.17
2022-11-20T22:52:12.817Z,0.08
2022-11-20T22:57:15.544Z,0.11
2022-11-20T23:02:18.384Z,0.12
2022-11-20T23:07:22.502Z,0.14
2022-11-20T23:12:25.267Z,0.16
2022-11-20T23:17:28.105Z,0.21
2022-11-20T23:22:34.050Z,0.20
2022-11-20T23:27:36.785Z,0.17
2022-11-20T23:32:39.516Z,0.15
2022-11-20T23:37:43.692Z,0.14
2022-11-20T23:43:00.331Z,0.08
2022-11-20T23:48:03.083Z,-0.01
2022-11-20T23:53:07.270Z,-0.02
2022-11-20T23:58:10.035Z,0.02
